sensor_id;sensor_type;location;lat;lon;timestamp;pressure;altitude;pressure_sealevel;temperature;humidity
20350;BME280;10332;50.208;18.988;2023-04-03T00:01:22;98423.31;;;4.98;85.00
20350;BME280;10332;50.208;18.988;2023-04-03T00:03:50;98423.19;;;5.01;84.85
20350;BME280;10332;50.208;18.988;2023-04-03T00:06:19;98433.16;;;5.10;84.77
20350;BME280;10332;50.208;18.988;2023-04-03T00:08:46;98428.25;;;5.04;84.63
20350;BME280;10332;50.208;18.988;2023-04-03T00:11:14;98423.91;;;5.04;84.29
20350;BME280;10332;50.208;18.988;2023-04-03T00:13:43;98433.38;;;5.05;83.66
20350;BME280;10332;50.208;18.988;2023-04-03T00:16:11;98425.00;;;4.99;83.91
20350;BME280;10332;50.208;18.988;2023-04-03T00:18:39;98421.63;;;4.97;83.67
20350;BME280;10332;50.208;18.988;2023-04-03T00:21:09;98425.50;;;4.87;83.26
20350;BME280;10332;50.208;18.988;2023-04-03T00:23:37;98426.34;;;4.87;83.64
20350;BME280;10332;50.208;18.988;2023-04-03T00:26:05;98420.44;;;4.83;83.59
20350;BME280;10332;50.208;18.988;2023-04-03T00:28:32;98422.91;;;4.87;83.43
20350;BME280;10332;50.208;18.988;2023-04-03T00:31:00;98432.09;;;4.94;83.17
20350;BME280;10332;50.208;18.988;2023-04-03T00:33:27;98423.91;;;4.82;83.35
20350;BME280;10332;50.208;18.988;2023-04-03T00:35:55;98428.84;;;4.89;83.39
20350;BME280;10332;50.208;18.988;2023-04-03T00:38:22;98429.78;;;4.88;83.42
20350;BME280;10332;50.208;18.988;2023-04-03T00:40:50;98421.75;;;4.94;83.41
20350;BME280;10332;50.208;18.988;2023-04-03T00:43:25;98428.50;;;4.98;83.59
20350;BME280;10332;50.208;18.988;2023-04-03T00:45:59;98431.78;;;5.01;83.61
20350;BME280;10332;50.208;18.988;2023-04-03T00:48:31;98426.81;;;4.97;83.65
20350;BME280;10332;50.208;18.988;2023-04-03T00:51:01;98427.88;;;4.91;83.41
20350;BME280;10332;50.208;18.988;2023-04-03T00:53:39;98432.47;;;4.84;83.13
20350;BME280;10332;50.208;18.988;2023-04-03T00:56:13;98429.94;;;4.83;83.39
20350;BME280;10332;50.208;18.988;2023-04-03T00:58:59;98433.84;;;4.93;83.19
20350;BME280;10332;50.208;18.988;2023-04-03T01:01:29;98430.25;;;4.97;83.83
20350;BME280;10332;50.208;18.988;2023-04-03T01:04:01;98438.47;;;5.07;83.75
20350;BME280;10332;50.208;18.988;2023-04-03T01:06:36;98441.06;;;5.07;83.78
20350;BME280;10332;50.208;18.988;2023-04-03T01:09:05;98432.47;;;5.06;83.92
20350;BME280;10332;50.208;18.988;2023-04-03T01:11:33;98442.66;;;5.09;84.12
20350;BME280;10332;50.208;18.988;2023-04-03T01:14:01;98434.97;;;5.08;84.25
20350;BME280;10332;50.208;18.988;2023-04-03T01:16:29;98434.00;;;5.10;84.17
20350;BME280;10332;50.208;18.988;2023-04-03T01:19:00;98442.44;;;5.16;83.53
20350;BME280;10332;50.208;18.988;2023-04-03T01:22:01;98445.19;;;5.11;83.96
20350;BME280;10332;50.208;18.988;2023-04-03T01:24:36;98455.69;;;5.08;83.64
20350;BME280;10332;50.208;18.988;2023-04-03T01:27:09;98447.53;;;5.17;83.26
20350;BME280;10332;50.208;18.988;2023-04-03T01:29:38;98442.28;;;5.19;83.04
20350;BME280;10332;50.208;18.988;2023-04-03T01:32:06;98444.94;;;5.17;83.28
20350;BME280;10332;50.208;18.988;2023-04-03T01:34:34;98447.84;;;5.09;83.22
20350;BME280;10332;50.208;18.988;2023-04-03T01:37:01;98445.31;;;5.08;83.27
20350;BME280;10332;50.208;18.988;2023-04-03T01:39:29;98448.59;;;5.13;83.13
20350;BME280;10332;50.208;18.988;2023-04-03T01:41:56;98452.56;;;5.00;83.07
20350;BME280;10332;50.208;18.988;2023-04-03T01:44:23;98459.16;;;5.07;83.10
20350;BME280;10332;50.208;18.988;2023-04-03T01:46:51;98446.53;;;4.99;82.92
20350;BME280;10332;50.208;18.988;2023-04-03T01:49:19;98454.31;;;4.99;82.94
20350;BME280;10332;50.208;18.988;2023-04-03T01:51:46;98469.53;;;5.07;83.00
20350;BME280;10332;50.208;18.988;2023-04-03T01:54:14;98456.94;;;4.98;83.11
20350;BME280;10332;50.208;18.988;2023-04-03T01:56:41;98451.00;;;4.96;82.99
20350;BME280;10332;50.208;18.988;2023-04-03T01:59:09;98463.94;;;4.96;82.95
20350;BME280;10332;50.208;18.988;2023-04-03T02:01:36;98455.50;;;4.91;82.86
20350;BME280;10332;50.208;18.988;2023-04-03T02:04:04;98467.59;;;4.90;82.82
20350;BME280;10332;50.208;18.988;2023-04-03T02:06:31;98465.00;;;4.90;82.44
20350;BME280;10332;50.208;18.988;2023-04-03T02:08:59;98467.59;;;4.90;82.21
20350;BME280;10332;50.208;18.988;2023-04-03T02:11:26;98467.00;;;4.83;82.19
20350;BME280;10332;50.208;18.988;2023-04-03T02:13:54;98464.53;;;4.80;82.23
20350;BME280;10332;50.208;18.988;2023-04-03T02:16:22;98462.84;;;4.79;81.97
20350;BME280;10332;50.208;18.988;2023-04-03T02:18:49;98472.78;;;4.68;81.67
20350;BME280;10332;50.208;18.988;2023-04-03T02:21:17;98465.19;;;4.64;81.77
20350;BME280;10332;50.208;18.988;2023-04-03T02:23:45;98479.78;;;4.65;82.06
20350;BME280;10332;50.208;18.988;2023-04-03T02:26:15;98475.03;;;4.54;82.05
20350;BME280;10332;50.208;18.988;2023-04-03T02:28:43;98475.88;;;4.54;81.83
20350;BME280;10332;50.208;18.988;2023-04-03T02:31:10;98484.53;;;4.53;81.22
20350;BME280;10332;50.208;18.988;2023-04-03T02:33:38;98474.41;;;4.47;81.67
20350;BME280;10332;50.208;18.988;2023-04-03T02:36:07;98484.66;;;4.50;81.32
20350;BME280;10332;50.208;18.988;2023-04-03T02:38:35;98476.16;;;4.47;81.83
20350;BME280;10332;50.208;18.988;2023-04-03T02:41:06;98483.81;;;4.26;81.50
20350;BME280;10332;50.208;18.988;2023-04-03T02:43:34;98478.78;;;4.22;81.98
20350;BME280;10332;50.208;18.988;2023-04-03T02:46:01;98482.78;;;4.31;82.44
20350;BME280;10332;50.208;18.988;2023-04-03T02:48:29;98477.38;;;4.37;82.53
20350;BME280;10332;50.208;18.988;2023-04-03T02:50:57;98479.00;;;4.39;82.45
20350;BME280;10332;50.208;18.988;2023-04-03T02:53:24;98470.25;;;4.43;82.15
20350;BME280;10332;50.208;18.988;2023-04-03T02:55:52;98478.63;;;4.50;82.38
20350;BME280;10332;50.208;18.988;2023-04-03T02:58:20;98475.16;;;4.51;82.25
20350;BME280;10332;50.208;18.988;2023-04-03T03:00:47;98477.59;;;4.54;82.39
20350;BME280;10332;50.208;18.988;2023-04-03T03:03:15;98486.56;;;4.67;82.15
20350;BME280;10332;50.208;18.988;2023-04-03T03:05:42;98483.34;;;4.62;82.30
20350;BME280;10332;50.208;18.988;2023-04-03T03:08:10;98479.78;;;4.65;82.08
20350;BME280;10332;50.208;18.988;2023-04-03T03:10:37;98485.50;;;4.73;81.60
20350;BME280;10332;50.208;18.988;2023-04-03T03:13:05;98483.13;;;4.68;81.19
20350;BME280;10332;50.208;18.988;2023-04-03T03:15:32;98480.47;;;4.70;80.85
20350;BME280;10332;50.208;18.988;2023-04-03T03:18:00;98483.22;;;4.65;80.47
20350;BME280;10332;50.208;18.988;2023-04-03T03:20:28;98490.97;;;4.65;79.97
20350;BME280;10332;50.208;18.988;2023-04-03T03:22:55;98486.22;;;4.54;79.87
20350;BME280;10332;50.208;18.988;2023-04-03T03:25:22;98495.72;;;4.54;79.89
20350;BME280;10332;50.208;18.988;2023-04-03T03:27:50;98503.25;;;4.60;79.53
20350;BME280;10332;50.208;18.988;2023-04-03T03:30:18;98500.75;;;4.57;79.32
20350;BME280;10332;50.208;18.988;2023-04-03T03:32:45;98503.47;;;4.54;78.97
20350;BME280;10332;50.208;18.988;2023-04-03T03:35:13;98500.75;;;4.57;78.82
20350;BME280;10332;50.208;18.988;2023-04-03T03:37:40;98501.38;;;4.40;78.52
20350;BME280;10332;50.208;18.988;2023-04-03T03:40:09;98509.53;;;4.30;77.99
20350;BME280;10332;50.208;18.988;2023-04-03T03:42:37;98507.28;;;4.20;78.13
20350;BME280;10332;50.208;18.988;2023-04-03T03:45:05;98510.44;;;4.28;78.36
20350;BME280;10332;50.208;18.988;2023-04-03T03:47:33;98510.53;;;4.25;78.47
20350;BME280;10332;50.208;18.988;2023-04-03T03:50:02;98521.09;;;4.19;78.07
20350;BME280;10332;50.208;18.988;2023-04-03T03:52:29;98510.03;;;4.16;78.03
20350;BME280;10332;50.208;18.988;2023-04-03T03:54:57;98518.31;;;4.01;77.55
20350;BME280;10332;50.208;18.988;2023-04-03T03:57:24;98519.41;;;3.93;77.89
20350;BME280;10332;50.208;18.988;2023-04-03T03:59:54;98522.56;;;4.02;78.22
20350;BME280;10332;50.208;18.988;2023-04-03T04:02:22;98526.91;;;4.01;77.98
20350;BME280;10332;50.208;18.988;2023-04-03T04:04:50;98536.44;;;3.99;78.22
20350;BME280;10332;50.208;18.988;2023-04-03T04:07:18;98518.50;;;3.94;78.09
20350;BME280;10332;50.208;18.988;2023-04-03T04:09:45;98523.84;;;3.90;78.01
20350;BME280;10332;50.208;18.988;2023-04-03T04:12:12;98521.06;;;3.96;78.09
20350;BME280;10332;50.208;18.988;2023-04-03T04:14:40;98527.91;;;3.97;78.06
20350;BME280;10332;50.208;18.988;2023-04-03T04:17:07;98527.59;;;4.06;77.74
20350;BME280;10332;50.208;18.988;2023-04-03T04:19:35;98534.41;;;4.09;77.77
20350;BME280;10332;50.208;18.988;2023-04-03T04:22:02;98529.16;;;4.10;77.72
20350;BME280;10332;50.208;18.988;2023-04-03T04:24:30;98522.53;;;4.03;77.65
20350;BME280;10332;50.208;18.988;2023-04-03T04:26:57;98543.19;;;4.03;77.63
20350;BME280;10332;50.208;18.988;2023-04-03T04:29:25;98531.13;;;4.04;77.57
20350;BME280;10332;50.208;18.988;2023-04-03T04:31:53;98536.25;;;4.05;77.59
20350;BME280;10332;50.208;18.988;2023-04-03T04:34:20;98538.25;;;3.97;77.49
20350;BME280;10332;50.208;18.988;2023-04-03T04:36:48;98539.69;;;4.04;77.40
20350;BME280;10332;50.208;18.988;2023-04-03T04:39:15;98544.25;;;3.97;77.53
20350;BME280;10332;50.208;18.988;2023-04-03T04:41:43;98549.75;;;3.88;77.21
20350;BME280;10332;50.208;18.988;2023-04-03T04:44:10;98560.00;;;3.90;77.19
20350;BME280;10332;50.208;18.988;2023-04-03T04:46:38;98560.69;;;3.95;77.20
20350;BME280;10332;50.208;18.988;2023-04-03T04:49:05;98563.97;;;4.00;76.93
20350;BME280;10332;50.208;18.988;2023-04-03T04:51:33;98562.16;;;4.02;76.88
20350;BME280;10332;50.208;18.988;2023-04-03T04:54:10;98560.44;;;4.03;76.93
20350;BME280;10332;50.208;18.988;2023-04-03T04:56:38;98559.66;;;4.01;76.93
20350;BME280;10332;50.208;18.988;2023-04-03T04:59:05;98565.50;;;4.06;76.63
20350;BME280;10332;50.208;18.988;2023-04-03T05:01:33;98566.22;;;4.09;76.25
20350;BME280;10332;50.208;18.988;2023-04-03T05:04:00;98572.56;;;4.01;75.91
20350;BME280;10332;50.208;18.988;2023-04-03T05:06:28;98575.31;;;3.96;75.81
20350;BME280;10332;50.208;18.988;2023-04-03T05:08:57;98570.34;;;3.90;75.72
20350;BME280;10332;50.208;18.988;2023-04-03T05:11:25;98576.28;;;3.92;75.93
20350;BME280;10332;50.208;18.988;2023-04-03T05:13:52;98577.69;;;3.76;75.36
20350;BME280;10332;50.208;18.988;2023-04-03T05:16:20;98586.09;;;3.82;75.38
20350;BME280;10332;50.208;18.988;2023-04-03T05:18:47;98580.91;;;3.82;75.76
20350;BME280;10332;50.208;18.988;2023-04-03T05:21:15;98589.81;;;3.74;75.58
20350;BME280;10332;50.208;18.988;2023-04-03T05:23:42;98592.50;;;3.70;75.87
20350;BME280;10332;50.208;18.988;2023-04-03T05:26:10;98596.28;;;3.87;75.69
20350;BME280;10332;50.208;18.988;2023-04-03T05:28:37;98595.38;;;3.88;75.42
20350;BME280;10332;50.208;18.988;2023-04-03T05:31:05;98593.22;;;4.01;75.14
20350;BME280;10332;50.208;18.988;2023-04-03T05:33:33;98592.19;;;4.06;74.69
20350;BME280;10332;50.208;18.988;2023-04-03T05:36:05;98596.44;;;4.07;74.53
20350;BME280;10332;50.208;18.988;2023-04-03T05:38:33;98595.66;;;4.05;74.18
20350;BME280;10332;50.208;18.988;2023-04-03T05:41:01;98606.84;;;4.06;74.27
20350;BME280;10332;50.208;18.988;2023-04-03T05:43:28;98601.16;;;3.96;73.82
20350;BME280;10332;50.208;18.988;2023-04-03T05:45:56;98605.66;;;3.89;73.99
20350;BME280;10332;50.208;18.988;2023-04-03T05:48:23;98602.28;;;3.87;74.07
20350;BME280;10332;50.208;18.988;2023-04-03T05:50:51;98607.59;;;3.83;74.24
20350;BME280;10332;50.208;18.988;2023-04-03T05:53:28;98609.88;;;3.92;74.00
20350;BME280;10332;50.208;18.988;2023-04-03T05:55:57;98612.56;;;3.89;73.77
20350;BME280;10332;50.208;18.988;2023-04-03T05:58:24;98619.31;;;3.93;73.73
20350;BME280;10332;50.208;18.988;2023-04-03T06:00:52;98617.03;;;3.84;73.30
20350;BME280;10332;50.208;18.988;2023-04-03T06:03:19;98619.41;;;3.90;73.44
20350;BME280;10332;50.208;18.988;2023-04-03T06:05:48;98620.63;;;3.80;73.88
20350;BME280;10332;50.208;18.988;2023-04-03T06:08:15;98622.28;;;3.81;73.30
20350;BME280;10332;50.208;18.988;2023-04-03T06:10:43;98616.28;;;3.80;73.56
20350;BME280;10332;50.208;18.988;2023-04-03T06:13:10;98634.50;;;3.76;73.02
20350;BME280;10332;50.208;18.988;2023-04-03T06:15:38;98636.19;;;3.77;73.06
20350;BME280;10332;50.208;18.988;2023-04-03T06:18:06;98631.56;;;3.86;72.83
20350;BME280;10332;50.208;18.988;2023-04-03T06:20:34;98632.03;;;3.99;72.62
20350;BME280;10332;50.208;18.988;2023-04-03T06:23:02;98635.94;;;4.11;72.60
20350;BME280;10332;50.208;18.988;2023-04-03T06:25:31;98642.25;;;4.02;71.43
20350;BME280;10332;50.208;18.988;2023-04-03T06:27:58;98642.53;;;3.93;71.31
20350;BME280;10332;50.208;18.988;2023-04-03T06:30:26;98642.06;;;4.08;71.40
20350;BME280;10332;50.208;18.988;2023-04-03T06:32:54;98642.72;;;4.13;71.05
20350;BME280;10332;50.208;18.988;2023-04-03T06:35:22;98640.97;;;4.15;70.72
20350;BME280;10332;50.208;18.988;2023-04-03T06:37:50;98642.22;;;4.28;70.49
20350;BME280;10332;50.208;18.988;2023-04-03T06:40:23;98645.66;;;4.54;70.29
20350;BME280;10332;50.208;18.988;2023-04-03T06:42:51;98646.03;;;4.68;69.46
20350;BME280;10332;50.208;18.988;2023-04-03T06:45:18;98657.16;;;4.70;68.30
20350;BME280;10332;50.208;18.988;2023-04-03T06:47:46;98665.56;;;4.75;68.30
20350;BME280;10332;50.208;18.988;2023-04-03T06:50:14;98663.28;;;4.91;67.63
20350;BME280;10332;50.208;18.988;2023-04-03T06:52:42;98671.56;;;5.01;67.20
20350;BME280;10332;50.208;18.988;2023-04-03T06:55:10;98673.59;;;5.16;68.03
20350;BME280;10332;50.208;18.988;2023-04-03T06:57:37;98670.81;;;5.22;68.41
20350;BME280;10332;50.208;18.988;2023-04-03T07:00:06;98671.59;;;5.24;68.07
20350;BME280;10332;50.208;18.988;2023-04-03T07:02:34;98670.88;;;5.19;68.58
20350;BME280;10332;50.208;18.988;2023-04-03T07:05:02;98673.88;;;5.08;68.22
20350;BME280;10332;50.208;18.988;2023-04-03T07:07:30;98685.56;;;5.19;67.68
20350;BME280;10332;50.208;18.988;2023-04-03T07:09:57;98684.97;;;5.35;68.00
20350;BME280;10332;50.208;18.988;2023-04-03T07:12:25;98683.78;;;5.44;67.36
20350;BME280;10332;50.208;18.988;2023-04-03T07:14:53;98687.75;;;5.75;67.46
20350;BME280;10332;50.208;18.988;2023-04-03T07:17:21;98694.56;;;6.43;65.10
20350;BME280;10332;50.208;18.988;2023-04-03T07:19:48;98700.06;;;7.90;60.82
20350;BME280;10332;50.208;18.988;2023-04-03T07:22:35;98703.44;;;7.92;59.74
20350;BME280;10332;50.208;18.988;2023-04-03T07:25:03;98705.50;;;8.91;57.24
20350;BME280;10332;50.208;18.988;2023-04-03T07:27:31;98697.03;;;8.53;57.26
20350;BME280;10332;50.208;18.988;2023-04-03T07:29:59;98699.19;;;8.26;54.90
20350;BME280;10332;50.208;18.988;2023-04-03T07:32:26;98707.44;;;8.17;55.83
20350;BME280;10332;50.208;18.988;2023-04-03T07:34:54;98709.84;;;8.21;57.30
20350;BME280;10332;50.208;18.988;2023-04-03T07:37:21;98709.16;;;7.99;54.59
20350;BME280;10332;50.208;18.988;2023-04-03T07:39:49;98721.09;;;7.67;54.25
20350;BME280;10332;50.208;18.988;2023-04-03T07:42:17;98716.09;;;7.44;54.88
20350;BME280;10332;50.208;18.988;2023-04-03T07:44:45;98719.75;;;7.21;54.49
20350;BME280;10332;50.208;18.988;2023-04-03T07:47:12;98715.38;;;7.02;54.41
20350;BME280;10332;50.208;18.988;2023-04-03T07:49:43;98713.59;;;6.82;54.47
20350;BME280;10332;50.208;18.988;2023-04-03T07:52:11;98717.03;;;7.03;54.50
20350;BME280;10332;50.208;18.988;2023-04-03T07:54:39;98718.69;;;7.25;55.38
20350;BME280;10332;50.208;18.988;2023-04-03T07:57:06;98711.53;;;7.86;54.78
20350;BME280;10332;50.208;18.988;2023-04-03T07:59:34;98712.59;;;8.18;53.07
20350;BME280;10332;50.208;18.988;2023-04-03T08:02:02;98711.75;;;8.54;51.82
20350;BME280;10332;50.208;18.988;2023-04-03T08:04:32;98705.16;;;8.81;51.77
20350;BME280;10332;50.208;18.988;2023-04-03T08:06:59;98708.28;;;8.71;51.16
20350;BME280;10332;50.208;18.988;2023-04-03T08:09:27;98714.72;;;8.81;49.79
20350;BME280;10332;50.208;18.988;2023-04-03T08:11:54;98719.59;;;8.87;48.56
20350;BME280;10332;50.208;18.988;2023-04-03T08:14:22;98720.53;;;9.19;48.37
20350;BME280;10332;50.208;18.988;2023-04-03T08:16:50;98712.59;;;9.38;47.68
20350;BME280;10332;50.208;18.988;2023-04-03T08:19:17;98716.25;;;9.83;47.57
20350;BME280;10332;50.208;18.988;2023-04-03T08:21:53;98715.78;;;10.06;46.65
20350;BME280;10332;50.208;18.988;2023-04-03T08:24:22;98709.31;;;10.13;45.56
20350;BME280;10332;50.208;18.988;2023-04-03T08:26:49;98716.56;;;9.92;44.80
20350;BME280;10332;50.208;18.988;2023-04-03T08:29:16;98722.00;;;9.41;44.49
20350;BME280;10332;50.208;18.988;2023-04-03T08:31:44;98719.88;;;9.31;45.46
20350;BME280;10332;50.208;18.988;2023-04-03T08:34:13;98717.47;;;9.28;45.18
20350;BME280;10332;50.208;18.988;2023-04-03T08:36:42;98723.63;;;9.59;43.79
20350;BME280;10332;50.208;18.988;2023-04-03T08:39:11;98723.63;;;10.22;42.81
20350;BME280;10332;50.208;18.988;2023-04-03T08:41:44;98720.16;;;10.67;42.08
20350;BME280;10332;50.208;18.988;2023-04-03T08:44:45;98724.03;;;10.90;41.31
20350;BME280;10332;50.208;18.988;2023-04-03T08:48:05;98719.69;;;10.61;39.73
20350;BME280;10332;50.208;18.988;2023-04-03T08:50:38;98728.66;;;10.41;38.20
20350;BME280;10332;50.208;18.988;2023-04-03T08:53:15;98725.75;;;12.31;36.84
20350;BME280;10332;50.208;18.988;2023-04-03T08:55:48;98720.88;;;13.04;35.35
20350;BME280;10332;50.208;18.988;2023-04-03T08:58:29;98713.00;;;13.55;33.63
20350;BME280;10332;50.208;18.988;2023-04-03T09:01:35;98720.06;;;15.99;31.26
20350;BME280;10332;50.208;18.988;2023-04-03T09:04:14;98711.75;;;18.70;27.10
20350;BME280;10332;50.208;18.988;2023-04-03T09:06:50;98707.38;;;18.59;26.42
20350;BME280;10332;50.208;18.988;2023-04-03T09:09:36;98715.59;;;18.18;26.01
20350;BME280;10332;50.208;18.988;2023-04-03T09:12:21;98723.66;;;17.36;26.65
20350;BME280;10332;50.208;18.988;2023-04-03T09:23:44;98716.00;;;29.26;17.10
20350;BME280;10332;50.208;18.988;2023-04-03T09:26:36;98719.34;;;26.25;16.75
20350;BME280;10332;50.208;18.988;2023-04-03T09:29:08;98723.91;;;24.98;18.43
20350;BME280;10332;50.208;18.988;2023-04-03T09:31:43;98724.94;;;25.50;18.57
20350;BME280;10332;50.208;18.988;2023-04-03T09:34:35;98727.03;;;21.74;19.79
20350;BME280;10332;50.208;18.988;2023-04-03T09:37:04;98730.13;;;19.75;21.11
20350;BME280;10332;50.208;18.988;2023-04-03T09:39:53;98736.47;;;18.30;23.56
20350;BME280;10332;50.208;18.988;2023-04-03T09:42:24;98746.09;;;17.60;23.66
20350;BME280;10332;50.208;18.988;2023-04-03T09:44:58;98744.84;;;15.96;24.01
20350;BME280;10332;50.208;18.988;2023-04-03T09:47:30;98745.28;;;14.41;25.25
20350;BME280;10332;50.208;18.988;2023-04-03T09:52:47;98767.56;;;12.59;27.33
20350;BME280;10332;50.208;18.988;2023-04-03T09:55:25;98762.34;;;13.50;27.13
20350;BME280;10332;50.208;18.988;2023-04-03T09:57:59;98751.13;;;18.73;22.82
20350;BME280;10332;50.208;18.988;2023-04-03T10:00:36;98747.81;;;25.52;17.90
20350;BME280;10332;50.208;18.988;2023-04-03T10:03:23;98739.53;;;26.85;16.78
20350;BME280;10332;50.208;18.988;2023-04-03T10:05:51;98754.78;;;24.32;18.80
20350;BME280;10332;50.208;18.988;2023-04-03T10:08:29;98750.47;;;22.96;19.80
20350;BME280;10332;50.208;18.988;2023-04-03T10:11:15;98755.22;;;21.93;20.91
20350;BME280;10332;50.208;18.988;2023-04-03T10:13:59;98751.41;;;26.54;18.69
20350;BME280;10332;50.208;18.988;2023-04-03T10:16:44;98758.75;;;27.10;17.06
20350;BME280;10332;50.208;18.988;2023-04-03T10:25:07;98758.47;;;23.04;18.31
20350;BME280;10332;50.208;18.988;2023-04-03T10:28:02;98778.91;;;20.37;20.03
20350;BME280;10332;50.208;18.988;2023-04-03T10:33:56;98771.50;;;18.13;21.30
20350;BME280;10332;50.208;18.988;2023-04-03T10:37:47;98767.03;;;26.94;16.78
20350;BME280;10332;50.208;18.988;2023-04-03T10:40:02;98761.03;;;33.42;13.32
20350;BME280;10332;50.208;18.988;2023-04-03T10:42:50;98758.50;;;33.87;13.05
20350;BME280;10332;50.208;18.988;2023-04-03T10:48:52;98755.25;;;37.08;11.30
20350;BME280;10332;50.208;18.988;2023-04-03T10:51:24;98742.00;;;41.80;9.67
20350;BME280;10332;50.208;18.988;2023-04-03T10:54:25;98749.00;;;46.16;7.83
20350;BME280;10332;50.208;18.988;2023-04-03T10:57:08;98728.78;;;44.02;8.40
20350;BME280;10332;50.208;18.988;2023-04-03T10:59:48;98726.97;;;38.19;10.44
20350;BME280;10332;50.208;18.988;2023-04-03T11:02:36;98721.72;;;35.22;11.56
20350;BME280;10332;50.208;18.988;2023-04-03T11:07:48;98721.44;;;37.41;10.97
20350;BME280;10332;50.208;18.988;2023-04-03T11:15:40;98719.75;;;37.77;9.83
20350;BME280;10332;50.208;18.988;2023-04-03T11:18:20;98709.56;;;37.62;8.92
20350;BME280;10332;50.208;18.988;2023-04-03T11:21:06;98719.03;;;27.55;13.54
20350;BME280;10332;50.208;18.988;2023-04-03T11:23:40;98719.66;;;27.01;13.85
20350;BME280;10332;50.208;18.988;2023-04-03T11:26:19;98717.66;;;33.07;12.30
20350;BME280;10332;50.208;18.988;2023-04-03T11:28:57;98716.69;;;41.59;8.41
20350;BME280;10332;50.208;18.988;2023-04-03T11:32:21;98711.72;;;45.88;7.63
20350;BME280;10332;50.208;18.988;2023-04-03T11:34:58;98707.38;;;40.68;9.05
20350;BME280;10332;50.208;18.988;2023-04-03T11:37:40;98711.50;;;38.29;9.74
20350;BME280;10332;50.208;18.988;2023-04-03T11:40:26;98699.88;;;41.66;8.06
20350;BME280;10332;50.208;18.988;2023-04-03T11:43:23;98707.84;;;48.16;6.21
20350;BME280;10332;50.208;18.988;2023-04-03T11:46:05;98719.00;;;49.36;5.43
20350;BME280;10332;50.208;18.988;2023-04-03T11:53:40;98706.97;;;53.92;5.70
20350;BME280;10332;50.208;18.988;2023-04-03T12:04:25;98685.56;;;41.69;7.32
20350;BME280;10332;50.208;18.988;2023-04-03T12:07:14;98680.06;;;39.44;8.44
20350;BME280;10332;50.208;18.988;2023-04-03T12:12:34;98685.88;;;50.32;5.44
20350;BME280;10332;50.208;18.988;2023-04-03T12:18:46;98665.84;;;39.57;8.19
20350;BME280;10332;50.208;18.988;2023-04-03T12:27:04;98646.63;;;36.47;9.41
20350;BME280;10332;50.208;18.988;2023-04-03T12:35:54;98657.66;;;49.65;5.04
20350;BME280;10332;50.208;18.988;2023-04-03T12:41:38;98645.69;;;43.72;6.81
20350;BME280;10332;50.208;18.988;2023-04-03T12:47:32;98642.50;;;35.69;9.55
20350;BME280;10332;50.208;18.988;2023-04-03T12:50:17;98631.84;;;30.47;11.94
20350;BME280;10332;50.208;18.988;2023-04-03T12:53:13;98638.75;;;31.11;11.91
20350;BME280;10332;50.208;18.988;2023-04-03T12:55:42;98639.41;;;39.17;8.81
20350;BME280;10332;50.208;18.988;2023-04-03T12:58:27;98641.59;;;42.36;7.48
20350;BME280;10332;50.208;18.988;2023-04-03T13:01:13;98637.94;;;39.50;8.13
20350;BME280;10332;50.208;18.988;2023-04-03T13:03:51;98643.84;;;32.64;10.66
20350;BME280;10332;50.208;18.988;2023-04-03T13:06:27;98647.94;;;33.60;11.42
20350;BME280;10332;50.208;18.988;2023-04-03T13:08:59;98651.38;;;37.99;8.82
20350;BME280;10332;50.208;18.988;2023-04-03T13:11:37;98647.13;;;41.50;7.92
20350;BME280;10332;50.208;18.988;2023-04-03T13:14:24;98658.53;;;43.90;7.03
20350;BME280;10332;50.208;18.988;2023-04-03T13:16:57;98660.63;;;44.43;6.59
20350;BME280;10332;50.208;18.988;2023-04-03T13:19:27;98638.47;;;42.05;7.28
20350;BME280;10332;50.208;18.988;2023-04-03T13:22:33;98652.91;;;42.67;7.38
20350;BME280;10332;50.208;18.988;2023-04-03T13:25:11;98653.97;;;45.12;6.47
20350;BME280;10332;50.208;18.988;2023-04-03T13:27:40;98634.47;;;43.14;6.20
20350;BME280;10332;50.208;18.988;2023-04-03T13:30:37;98647.66;;;44.22;6.10
20350;BME280;10332;50.208;18.988;2023-04-03T13:33:24;98646.66;;;47.20;6.27
20350;BME280;10332;50.208;18.988;2023-04-03T13:38:33;98640.75;;;36.33;8.67
20350;BME280;10332;50.208;18.988;2023-04-03T13:41:31;98636.78;;;29.02;11.14
20350;BME280;10332;50.208;18.988;2023-04-03T13:46:57;98638.38;;;35.66;8.77
20350;BME280;10332;50.208;18.988;2023-04-03T13:49:40;98633.63;;;37.91;7.78
20350;BME280;10332;50.208;18.988;2023-04-03T13:52:30;98633.00;;;31.44;10.20
20350;BME280;10332;50.208;18.988;2023-04-03T13:55:20;98627.94;;;26.77;13.02
20350;BME280;10332;50.208;18.988;2023-04-03T14:00:50;98640.69;;;20.40;17.05
20350;BME280;10332;50.208;18.988;2023-04-03T14:03:33;98643.22;;;19.14;18.74
20350;BME280;10332;50.208;18.988;2023-04-03T14:06:07;98636.13;;;18.48;20.13
20350;BME280;10332;50.208;18.988;2023-04-03T14:08:37;98642.38;;;18.57;19.73
20350;BME280;10332;50.208;18.988;2023-04-03T14:11:15;98646.41;;;17.03;21.25
20350;BME280;10332;50.208;18.988;2023-04-03T14:13:45;98655.91;;;16.32;21.66
20350;BME280;10332;50.208;18.988;2023-04-03T14:16:23;98653.00;;;15.48;22.30
20350;BME280;10332;50.208;18.988;2023-04-03T14:18:53;98650.47;;;15.36;22.60
20350;BME280;10332;50.208;18.988;2023-04-03T14:21:21;98651.34;;;15.02;22.79
20350;BME280;10332;50.208;18.988;2023-04-03T14:23:49;98659.56;;;15.09;23.48
20350;BME280;10332;50.208;18.988;2023-04-03T14:26:22;98657.38;;;20.15;19.86
20350;BME280;10332;50.208;18.988;2023-04-03T14:28:54;98645.63;;;17.22;20.92
20350;BME280;10332;50.208;18.988;2023-04-03T14:31:23;98655.38;;;15.51;22.12
20350;BME280;10332;50.208;18.988;2023-04-03T14:33:51;98655.63;;;14.11;23.08
20350;BME280;10332;50.208;18.988;2023-04-03T14:36:25;98658.28;;;13.25;24.13
20350;BME280;10332;50.208;18.988;2023-04-03T14:38:55;98658.06;;;12.90;24.51
20350;BME280;10332;50.208;18.988;2023-04-03T14:41:25;98664.53;;;12.46;25.48
20350;BME280;10332;50.208;18.988;2023-04-03T14:43:54;98659.28;;;14.32;24.37